sensor_id;sensor_type;location;lat;lon;timestamp;P1;durP1;ratioP1;P2;durP2;ratioP2
42770;SDS011;28426;42.872;25.314;2023-04-29T00:02:05;13.90;;;7.63;;
42770;SDS011;28426;42.872;25.314;2023-04-29T00:04:36;14.23;;;7.15;;
42770;SDS011;28426;42.872;25.314;2023-04-29T00:07:08;11.43;;;6.90;;
42770;SDS011;28426;42.872;25.314;2023-04-29T00:09:44;12.07;;;7.15;;
42770;SDS011;28426;42.872;25.314;2023-04-29T00:12:14;12.02;;;7.30;;
42770;SDS011;28426;42.872;25.314;2023-04-29T00:14:45;10.40;;;6.50;;
42770;SDS011;28426;42.872;25.314;2023-04-29T00:17:16;12.93;;;7.07;;
42770;SDS011;28426;42.872;25.314;2023-04-29T00:19:47;12.75;;;7.15;;
42770;SDS011;28426;42.872;25.314;2023-04-29T00:22:19;11.02;;;6.47;;
42770;SDS011;28426;42.872;25.314;2023-04-29T00:24:52;11.80;;;6.57;;
42770;SDS011;28426;42.872;25.314;2023-04-29T00:27:23;10.40;;;6.40;;
42770;SDS011;28426;42.872;25.314;2023-04-29T00:29:54;13.00;;;6.28;;
42770;SDS011;28426;42.872;25.314;2023-04-29T00:32:25;13.63;;;6.60;;
42770;SDS011;28426;42.872;25.314;2023-04-29T00:34:56;11.65;;;6.47;;
42770;SDS011;28426;42.872;25.314;2023-04-29T00:37:29;10.45;;;6.95;;
42770;SDS011;28426;42.872;25.314;2023-04-29T00:40:03;12.68;;;7.60;;
42770;SDS011;28426;42.872;25.314;2023-04-29T00:42:35;12.07;;;7.80;;
42770;SDS011;28426;42.872;25.314;2023-04-29T00:45:07;12.23;;;6.90;;
42770;SDS011;28426;42.872;25.314;2023-04-29T00:47:40;11.80;;;7.13;;
42770;SDS011;28426;42.872;25.314;2023-04-29T00:50:11;11.40;;;6.72;;
42770;SDS011;28426;42.872;25.314;2023-04-29T00:52:43;10.13;;;7.10;;
42770;SDS011;28426;42.872;25.314;2023-04-29T00:55:17;12.68;;;7.18;;
42770;SDS011;28426;42.872;25.314;2023-04-29T00:57:48;16.65;;;6.82;;
42770;SDS011;28426;42.872;25.314;2023-04-29T01:00:20;12.50;;;6.88;;
42770;SDS011;28426;42.872;25.314;2023-04-29T01:02:52;10.90;;;7.03;;
42770;SDS011;28426;42.872;25.314;2023-04-29T01:05:24;11.57;;;7.15;;
42770;SDS011;28426;42.872;25.314;2023-04-29T01:08:01;11.55;;;7.28;;
42770;SDS011;28426;42.872;25.314;2023-04-29T01:10:45;10.98;;;7.32;;
42770;SDS011;28426;42.872;25.314;2023-04-29T01:13:24;11.98;;;6.85;;
42770;SDS011;28426;42.872;25.314;2023-04-29T01:16:02;11.52;;;6.50;;
42770;SDS011;28426;42.872;25.314;2023-04-29T01:18:39;11.88;;;6.80;;
42770;SDS011;28426;42.872;25.314;2023-04-29T01:21:16;11.02;;;6.80;;
42770;SDS011;28426;42.872;25.314;2023-04-29T01:23:51;13.68;;;7.13;;
42770;SDS011;28426;42.872;25.314;2023-04-29T01:26:25;15.50;;;7.55;;
42770;SDS011;28426;42.872;25.314;2023-04-29T01:29:08;12.98;;;7.20;;
42770;SDS011;28426;42.872;25.314;2023-04-29T01:31:57;14.13;;;7.40;;
42770;SDS011;28426;42.872;25.314;2023-04-29T01:34:37;15.85;;;7.78;;
42770;SDS011;28426;42.872;25.314;2023-04-29T01:37:16;14.48;;;8.20;;
42770;SDS011;28426;42.872;25.314;2023-04-29T01:39:55;13.07;;;7.35;;
42770;SDS011;28426;42.872;25.314;2023-04-29T01:42:42;11.95;;;7.25;;
42770;SDS011;28426;42.872;25.314;2023-04-29T01:45:17;13.90;;;7.05;;
42770;SDS011;28426;42.872;25.314;2023-04-29T01:47:50;13.15;;;7.15;;
42770;SDS011;28426;42.872;25.314;2023-04-29T01:50:25;10.52;;;5.97;;
42770;SDS011;28426;42.872;25.314;2023-04-29T01:53:04;10.95;;;6.70;;
42770;SDS011;28426;42.872;25.314;2023-04-29T01:55:38;13.40;;;6.70;;
42770;SDS011;28426;42.872;25.314;2023-04-29T01:58:26;11.02;;;6.82;;
42770;SDS011;28426;42.872;25.314;2023-04-29T02:01:10;11.07;;;7.28;;
42770;SDS011;28426;42.872;25.314;2023-04-29T02:03:41;13.63;;;7.40;;
42770;SDS011;28426;42.872;25.314;2023-04-29T02:06:14;10.95;;;7.03;;
42770;SDS011;28426;42.872;25.314;2023-04-29T02:08:50;10.20;;;6.32;;
42770;SDS011;28426;42.872;25.314;2023-04-29T02:11:23;10.82;;;6.20;;
42770;SDS011;28426;42.872;25.314;2023-04-29T02:16:27;10.23;;;5.43;;
42770;SDS011;28426;42.872;25.314;2023-04-29T02:19:01;10.00;;;5.93;;
42770;SDS011;28426;42.872;25.314;2023-04-29T02:21:32;11.82;;;6.40;;
42770;SDS011;28426;42.872;25.314;2023-04-29T02:24:06;14.95;;;6.88;;
42770;SDS011;28426;42.872;25.314;2023-04-29T02:26:39;12.02;;;7.10;;
42770;SDS011;28426;42.872;25.314;2023-04-29T02:29:10;11.13;;;7.20;;
42770;SDS011;28426;42.872;25.314;2023-04-29T02:31:43;12.48;;;7.53;;
42770;SDS011;28426;42.872;25.314;2023-04-29T02:34:15;14.05;;;7.78;;
42770;SDS011;28426;42.872;25.314;2023-04-29T02:36:46;11.25;;;6.93;;
42770;SDS011;28426;42.872;25.314;2023-04-29T02:39:20;11.38;;;7.90;;
42770;SDS011;28426;42.872;25.314;2023-04-29T02:41:56;12.57;;;7.63;;
42770;SDS011;28426;42.872;25.314;2023-04-29T02:44:28;13.65;;;7.63;;
42770;SDS011;28426;42.872;25.314;2023-04-29T02:46:59;13.00;;;7.07;;
42770;SDS011;28426;42.872;25.314;2023-04-29T02:49:31;11.90;;;6.78;;
42770;SDS011;28426;42.872;25.314;2023-04-29T02:52:02;11.95;;;7.18;;
42770;SDS011;28426;42.872;25.314;2023-04-29T02:54:34;14.40;;;7.78;;
42770;SDS011;28426;42.872;25.314;2023-04-29T02:57:08;16.35;;;8.27;;
42770;SDS011;28426;42.872;25.314;2023-04-29T02:59:38;14.73;;;8.18;;
42770;SDS011;28426;42.872;25.314;2023-04-29T03:02:09;11.80;;;7.78;;
42770;SDS011;28426;42.872;25.314;2023-04-29T03:04:43;13.25;;;7.50;;
42770;SDS011;28426;42.872;25.314;2023-04-29T03:07:14;13.52;;;8.07;;
42770;SDS011;28426;42.872;25.314;2023-04-29T03:09:45;10.93;;;7.68;;
42770;SDS011;28426;42.872;25.314;2023-04-29T03:12:19;13.10;;;8.10;;
42770;SDS011;28426;42.872;25.314;2023-04-29T03:14:50;16.33;;;8.45;;
42770;SDS011;28426;42.872;25.314;2023-04-29T03:17:23;14.00;;;8.15;;
42770;SDS011;28426;42.872;25.314;2023-04-29T03:19:55;10.45;;;7.82;;
42770;SDS011;28426;42.872;25.314;2023-04-29T03:22:26;11.75;;;6.97;;
42770;SDS011;28426;42.872;25.314;2023-04-29T03:24:57;12.88;;;7.45;;
42770;SDS011;28426;42.872;25.314;2023-04-29T03:27:33;12.48;;;7.60;;
42770;SDS011;28426;42.872;25.314;2023-04-29T03:30:04;11.73;;;7.18;;
42770;SDS011;28426;42.872;25.314;2023-04-29T03:32:43;11.90;;;6.82;;
42770;SDS011;28426;42.872;25.314;2023-04-29T03:35:14;11.18;;;7.55;;
42770;SDS011;28426;42.872;25.314;2023-04-29T03:38:19;13.95;;;7.38;;
42770;SDS011;28426;42.872;25.314;2023-04-29T03:40:53;13.30;;;7.57;;
42770;SDS011;28426;42.872;25.314;2023-04-29T03:43:27;11.00;;;7.35;;
42770;SDS011;28426;42.872;25.314;2023-04-29T03:45:58;14.73;;;8.82;;
42770;SDS011;28426;42.872;25.314;2023-04-29T03:48:29;15.40;;;8.02;;
42770;SDS011;28426;42.872;25.314;2023-04-29T03:51:00;13.55;;;7.30;;
42770;SDS011;28426;42.872;25.314;2023-04-29T03:53:32;12.45;;;7.68;;
42770;SDS011;28426;42.872;25.314;2023-04-29T03:56:04;12.77;;;7.70;;
42770;SDS011;28426;42.872;25.314;2023-04-29T03:58:38;11.00;;;6.72;;
42770;SDS011;28426;42.872;25.314;2023-04-29T04:01:09;13.23;;;7.10;;
42770;SDS011;28426;42.872;25.314;2023-04-29T04:03:43;9.82;;;6.57;;
42770;SDS011;28426;42.872;25.314;2023-04-29T04:06:15;11.45;;;6.85;;
42770;SDS011;28426;42.872;25.314;2023-04-29T04:08:47;10.52;;;6.65;;
42770;SDS011;28426;42.872;25.314;2023-04-29T04:14:01;8.35;;;5.50;;
42770;SDS011;28426;42.872;25.314;2023-04-29T04:16:32;11.35;;;6.32;;
42770;SDS011;28426;42.872;25.314;2023-04-29T04:19:03;10.30;;;6.03;;
42770;SDS011;28426;42.872;25.314;2023-04-29T04:21:37;10.27;;;6.38;;
42770;SDS011;28426;42.872;25.314;2023-04-29T04:24:09;13.10;;;6.30;;
42770;SDS011;28426;42.872;25.314;2023-04-29T04:26:41;11.55;;;5.45;;
42770;SDS011;28426;42.872;25.314;2023-04-29T04:29:23;11.07;;;5.68;;
42770;SDS011;28426;42.872;25.314;2023-04-29T04:32:05;13.65;;;6.03;;
42770;SDS011;28426;42.872;25.314;2023-04-29T04:34:37;11.68;;;6.10;;
42770;SDS011;28426;42.872;25.314;2023-04-29T04:37:09;10.60;;;5.68;;
42770;SDS011;28426;42.872;25.314;2023-04-29T04:39:42;10.73;;;5.45;;
42770;SDS011;28426;42.872;25.314;2023-04-29T04:42:14;12.65;;;5.93;;
42770;SDS011;28426;42.872;25.314;2023-04-29T04:44:49;10.68;;;5.85;;
42770;SDS011;28426;42.872;25.314;2023-04-29T04:47:36;9.15;;;5.28;;
42770;SDS011;28426;42.872;25.314;2023-04-29T04:50:19;8.05;;;4.80;;
42770;SDS011;28426;42.872;25.314;2023-04-29T04:52:51;11.32;;;6.13;;
42770;SDS011;28426;42.872;25.314;2023-04-29T04:55:44;12.32;;;5.63;;
42770;SDS011;28426;42.872;25.314;2023-04-29T04:58:16;6.47;;;4.25;;
42770;SDS011;28426;42.872;25.314;2023-04-29T05:00:50;9.43;;;4.47;;
42770;SDS011;28426;42.872;25.314;2023-04-29T05:03:21;13.48;;;4.50;;
42770;SDS011;28426;42.872;25.314;2023-04-29T05:05:53;8.30;;;3.83;;
42770;SDS011;28426;42.872;25.314;2023-04-29T05:08:25;7.57;;;3.70;;
42770;SDS011;28426;42.872;25.314;2023-04-29T05:10:58;10.45;;;4.60;;
42770;SDS011;28426;42.872;25.314;2023-04-29T05:13:29;7.32;;;4.10;;
42770;SDS011;28426;42.872;25.314;2023-04-29T05:16:04;7.30;;;4.03;;
42770;SDS011;28426;42.872;25.314;2023-04-29T05:18:39;10.80;;;4.45;;
42770;SDS011;28426;42.872;25.314;2023-04-29T05:21:12;10.35;;;5.30;;
42770;SDS011;28426;42.872;25.314;2023-04-29T05:23:44;11.73;;;5.22;;
42770;SDS011;28426;42.872;25.314;2023-04-29T05:26:15;12.20;;;5.38;;
42770;SDS011;28426;42.872;25.314;2023-04-29T05:28:47;11.15;;;5.07;;
42770;SDS011;28426;42.872;25.314;2023-04-29T05:31:22;9.05;;;5.03;;
42770;SDS011;28426;42.872;25.314;2023-04-29T05:33:56;12.70;;;6.60;;
42770;SDS011;28426;42.872;25.314;2023-04-29T05:36:27;13.55;;;5.70;;
42770;SDS011;28426;42.872;25.314;2023-04-29T05:38:58;9.55;;;5.60;;
42770;SDS011;28426;42.872;25.314;2023-04-29T05:41:29;17.63;;;6.78;;
42770;SDS011;28426;42.872;25.314;2023-04-29T05:44:25;11.60;;;6.20;;
42770;SDS011;28426;42.872;25.314;2023-04-29T05:46:59;12.45;;;6.22;;
42770;SDS011;28426;42.872;25.314;2023-04-29T05:49:30;9.82;;;4.82;;
42770;SDS011;28426;42.872;25.314;2023-04-29T05:52:00;9.23;;;4.85;;
42770;SDS011;28426;42.872;25.314;2023-04-29T05:54:38;9.05;;;4.70;;
42770;SDS011;28426;42.872;25.314;2023-04-29T05:57:08;13.75;;;5.45;;
42770;SDS011;28426;42.872;25.314;2023-04-29T05:59:39;12.93;;;5.38;;
42770;SDS011;28426;42.872;25.314;2023-04-29T06:02:13;14.35;;;5.10;;
42770;SDS011;28426;42.872;25.314;2023-04-29T06:04:44;9.00;;;4.47;;
42770;SDS011;28426;42.872;25.314;2023-04-29T06:07:34;18.13;;;4.97;;
42770;SDS011;28426;42.872;25.314;2023-04-29T06:10:19;9.45;;;4.35;;
42770;SDS011;28426;42.872;25.314;2023-04-29T06:12:50;13.88;;;5.13;;
42770;SDS011;28426;42.872;25.314;2023-04-29T06:15:20;10.48;;;4.78;;
42770;SDS011;28426;42.872;25.314;2023-04-29T06:17:54;8.98;;;4.60;;
42770;SDS011;28426;42.872;25.314;2023-04-29T06:20:25;7.25;;;4.57;;
42770;SDS011;28426;42.872;25.314;2023-04-29T06:23:00;13.13;;;4.55;;
42770;SDS011;28426;42.872;25.314;2023-04-29T06:25:31;8.82;;;3.80;;
42770;SDS011;28426;42.872;25.314;2023-04-29T06:28:05;10.15;;;4.40;;
42770;SDS011;28426;42.872;25.314;2023-04-29T06:30:36;15.10;;;4.45;;
42770;SDS011;28426;42.872;25.314;2023-04-29T06:33:10;7.80;;;3.17;;
42770;SDS011;28426;42.872;25.314;2023-04-29T06:35:41;6.85;;;2.92;;
42770;SDS011;28426;42.872;25.314;2023-04-29T06:38:38;8.13;;;2.63;;
42770;SDS011;28426;42.872;25.314;2023-04-29T06:41:28;7.25;;;2.40;;
42770;SDS011;28426;42.872;25.314;2023-04-29T06:44:18;6.88;;;2.80;;
42770;SDS011;28426;42.872;25.314;2023-04-29T06:47:17;7.85;;;2.60;;
42770;SDS011;28426;42.872;25.314;2023-04-29T06:50:07;7.10;;;2.75;;
42770;SDS011;28426;42.872;25.314;2023-04-29T06:52:39;9.07;;;3.20;;
42770;SDS011;28426;42.872;25.314;2023-04-29T06:55:10;11.30;;;3.88;;
42770;SDS011;28426;42.872;25.314;2023-04-29T06:57:42;6.32;;;3.40;;
42770;SDS011;28426;42.872;25.314;2023-04-29T07:00:13;10.93;;;3.67;;
42770;SDS011;28426;42.872;25.314;2023-04-29T07:02:47;10.25;;;5.00;;
42770;SDS011;28426;42.872;25.314;2023-04-29T07:05:20;10.18;;;4.20;;
42770;SDS011;28426;42.872;25.314;2023-04-29T07:07:51;10.85;;;4.25;;
42770;SDS011;28426;42.872;25.314;2023-04-29T07:10:24;11.10;;;4.65;;
42770;SDS011;28426;42.872;25.314;2023-04-29T07:12:55;9.27;;;3.80;;
42770;SDS011;28426;42.872;25.314;2023-04-29T07:15:27;7.78;;;3.47;;
42770;SDS011;28426;42.872;25.314;2023-04-29T07:17:58;6.32;;;2.67;;
42770;SDS011;28426;42.872;25.314;2023-04-29T07:20:35;11.10;;;3.03;;
42770;SDS011;28426;42.872;25.314;2023-04-29T07:23:06;7.13;;;2.78;;
42770;SDS011;28426;42.872;25.314;2023-04-29T07:25:37;6.63;;;2.63;;
42770;SDS011;28426;42.872;25.314;2023-04-29T07:28:07;7.32;;;2.70;;
42770;SDS011;28426;42.872;25.314;2023-04-29T07:30:38;8.30;;;3.55;;
42770;SDS011;28426;42.872;25.314;2023-04-29T07:33:09;9.82;;;3.10;;
42770;SDS011;28426;42.872;25.314;2023-04-29T07:35:43;6.03;;;2.47;;
42770;SDS011;28426;42.872;25.314;2023-04-29T07:38:14;6.93;;;3.03;;
42770;SDS011;28426;42.872;25.314;2023-04-29T07:40:44;5.65;;;2.30;;
42770;SDS011;28426;42.872;25.314;2023-04-29T07:43:16;7.53;;;2.80;;
42770;SDS011;28426;42.872;25.314;2023-04-29T07:45:48;7.47;;;2.85;;
42770;SDS011;28426;42.872;25.314;2023-04-29T07:48:20;14.07;;;3.58;;
42770;SDS011;28426;42.872;25.314;2023-04-29T07:50:54;14.20;;;3.58;;
42770;SDS011;28426;42.872;25.314;2023-04-29T07:53:26;7.28;;;2.60;;
42770;SDS011;28426;42.872;25.314;2023-04-29T07:55:57;5.78;;;2.03;;
42770;SDS011;28426;42.872;25.314;2023-04-29T07:58:28;10.07;;;2.60;;
42770;SDS011;28426;42.872;25.314;2023-04-29T08:01:03;7.68;;;2.92;;
42770;SDS011;28426;42.872;25.314;2023-04-29T08:03:35;5.00;;;2.40;;
42770;SDS011;28426;42.872;25.314;2023-04-29T08:06:12;7.87;;;2.50;;
42770;SDS011;28426;42.872;25.314;2023-04-29T08:08:44;5.40;;;2.33;;
42770;SDS011;28426;42.872;25.314;2023-04-29T08:11:18;11.05;;;3.50;;
42770;SDS011;28426;42.872;25.314;2023-04-29T08:13:52;7.07;;;2.20;;
42770;SDS011;28426;42.872;25.314;2023-04-29T08:16:25;5.68;;;2.55;;
42770;SDS011;28426;42.872;25.314;2023-04-29T08:18:56;5.13;;;2.55;;
42770;SDS011;28426;42.872;25.314;2023-04-29T08:21:30;10.25;;;3.13;;
42770;SDS011;28426;42.872;25.314;2023-04-29T08:24:01;8.47;;;2.47;;
42770;SDS011;28426;42.872;25.314;2023-04-29T08:26:32;16.42;;;3.53;;
42770;SDS011;28426;42.872;25.314;2023-04-29T08:29:03;6.93;;;2.20;;
42770;SDS011;28426;42.872;25.314;2023-04-29T08:31:34;7.45;;;2.50;;
42770;SDS011;28426;42.872;25.314;2023-04-29T08:34:05;7.60;;;2.38;;
42770;SDS011;28426;42.872;25.314;2023-04-29T08:36:38;10.38;;;2.30;;
42770;SDS011;28426;42.872;25.314;2023-04-29T08:39:09;8.93;;;2.17;;
42770;SDS011;28426;42.872;25.314;2023-04-29T08:41:40;5.93;;;2.40;;
42770;SDS011;28426;42.872;25.314;2023-04-29T08:44:15;7.30;;;2.33;;
42770;SDS011;28426;42.872;25.314;2023-04-29T08:46:47;8.20;;;2.47;;
42770;SDS011;28426;42.872;25.314;2023-04-29T08:49:19;4.80;;;2.42;;
42770;SDS011;28426;42.872;25.314;2023-04-29T08:51:52;5.50;;;2.60;;
42770;SDS011;28426;42.872;25.314;2023-04-29T08:54:23;6.22;;;2.30;;
42770;SDS011;28426;42.872;25.314;2023-04-29T08:56:54;5.72;;;2.50;;
42770;SDS011;28426;42.872;25.314;2023-04-29T08:59:27;6.45;;;2.50;;
42770;SDS011;28426;42.872;25.314;2023-04-29T09:01:59;8.38;;;2.88;;
42770;SDS011;28426;42.872;25.314;2023-04-29T09:04:32;7.72;;;2.55;;
42770;SDS011;28426;42.872;25.314;2023-04-29T09:07:14;5.13;;;1.90;;
42770;SDS011;28426;42.872;25.314;2023-04-29T09:09:45;9.05;;;2.00;;
42770;SDS011;28426;42.872;25.314;2023-04-29T09:12:17;7.80;;;2.30;;
42770;SDS011;28426;42.872;25.314;2023-04-29T09:14:48;9.75;;;2.20;;
42770;SDS011;28426;42.872;25.314;2023-04-29T09:17:21;7.70;;;2.40;;
42770;SDS011;28426;42.872;25.314;2023-04-29T09:23:00;6.32;;;2.20;;
42770;SDS011;28426;42.872;25.314;2023-04-29T09:25:32;6.05;;;2.35;;
42770;SDS011;28426;42.872;25.314;2023-04-29T09:28:13;4.30;;;2.13;;
42770;SDS011;28426;42.872;25.314;2023-04-29T09:30:44;5.25;;;2.38;;
42770;SDS011;28426;42.872;25.314;2023-04-29T09:33:17;4.80;;;1.95;;
42770;SDS011;28426;42.872;25.314;2023-04-29T09:35:47;6.45;;;2.10;;
42770;SDS011;28426;42.872;25.314;2023-04-29T09:38:21;5.55;;;2.33;;
42770;SDS011;28426;42.872;25.314;2023-04-29T09:40:52;7.18;;;3.20;;
42770;SDS011;28426;42.872;25.314;2023-04-29T09:43:25;8.18;;;2.70;;
42770;SDS011;28426;42.872;25.314;2023-04-29T09:45:56;9.10;;;2.40;;
42770;SDS011;28426;42.872;25.314;2023-04-29T09:48:29;6.40;;;1.90;;
42770;SDS011;28426;42.872;25.314;2023-04-29T09:51:02;5.93;;;2.20;;
42770;SDS011;28426;42.872;25.314;2023-04-29T09:53:36;6.78;;;2.45;;
42770;SDS011;28426;42.872;25.314;2023-04-29T09:56:06;6.60;;;2.40;;
42770;SDS011;28426;42.872;25.314;2023-04-29T09:58:37;9.32;;;2.50;;
42770;SDS011;28426;42.872;25.314;2023-04-29T10:01:08;8.35;;;2.20;;
42770;SDS011;28426;42.872;25.314;2023-04-29T10:03:40;4.55;;;2.10;;
42770;SDS011;28426;42.872;25.314;2023-04-29T10:06:12;4.82;;;2.10;;
42770;SDS011;28426;42.872;25.314;2023-04-29T10:08:48;5.07;;;2.20;;
42770;SDS011;28426;42.872;25.314;2023-04-29T10:11:20;6.55;;;2.30;;
42770;SDS011;28426;42.872;25.314;2023-04-29T10:13:51;6.15;;;1.92;;
42770;SDS011;28426;42.872;25.314;2023-04-29T10:16:24;6.57;;;2.17;;
42770;SDS011;28426;42.872;25.314;2023-04-29T10:18:59;6.35;;;1.75;;
42770;SDS011;28426;42.872;25.314;2023-04-29T10:21:34;4.68;;;2.00;;
42770;SDS011;28426;42.872;25.314;2023-04-29T10:24:08;7.10;;;2.00;;
42770;SDS011;28426;42.872;25.314;2023-04-29T10:26:41;4.13;;;1.77;;
42770;SDS011;28426;42.872;25.314;2023-04-29T10:29:16;5.72;;;2.30;;
42770;SDS011;28426;42.872;25.314;2023-04-29T10:31:48;3.53;;;1.60;;
42770;SDS011;28426;42.872;25.314;2023-04-29T10:34:20;5.57;;;2.67;;
42770;SDS011;28426;42.872;25.314;2023-04-29T10:36:52;8.75;;;1.90;;
42770;SDS011;28426;42.872;25.314;2023-04-29T10:39:29;5.85;;;2.15;;
42770;SDS011;28426;42.872;25.314;2023-04-29T10:42:20;5.97;;;2.10;;
42770;SDS011;28426;42.872;25.314;2023-04-29T10:45:16;6.47;;;2.10;;
42770;SDS011;28426;42.872;25.314;2023-04-29T10:53:33;6.18;;;2.30;;
42770;SDS011;28426;42.872;25.314;2023-04-29T10:56:09;5.85;;;2.30;;
42770;SDS011;28426;42.872;25.314;2023-04-29T10:58:43;6.15;;;1.98;;
42770;SDS011;28426;42.872;25.314;2023-04-29T11:01:15;12.48;;;2.80;;
42770;SDS011;28426;42.872;25.314;2023-04-29T11:03:47;5.93;;;1.77;;
42770;SDS011;28426;42.872;25.314;2023-04-29T11:06:22;5.05;;;2.03;;
42770;SDS011;28426;42.872;25.314;2023-04-29T11:09:00;7.60;;;1.90;;
42770;SDS011;28426;42.872;25.314;2023-04-29T11:11:43;6.38;;;2.20;;
42770;SDS011;28426;42.872;25.314;2023-04-29T11:14:20;5.30;;;2.22;;
42770;SDS011;28426;42.872;25.314;2023-04-29T11:16:55;5.97;;;2.10;;
42770;SDS011;28426;42.872;25.314;2023-04-29T11:19:30;4.63;;;1.83;;
42770;SDS011;28426;42.872;25.314;2023-04-29T11:22:12;8.88;;;3.33;;
42770;SDS011;28426;42.872;25.314;2023-04-29T11:24:54;6.65;;;2.40;;
42770;SDS011;28426;42.872;25.314;2023-04-29T11:27:35;5.47;;;2.42;;
42770;SDS011;28426;42.872;25.314;2023-04-29T11:30:09;8.15;;;2.33;;
42770;SDS011;28426;42.872;25.314;2023-04-29T11:32:40;6.70;;;2.35;;
42770;SDS011;28426;42.872;25.314;2023-04-29T11:35:12;4.28;;;2.17;;
42770;SDS011;28426;42.872;25.314;2023-04-29T11:37:44;6.00;;;2.28;;
42770;SDS011;28426;42.872;25.314;2023-04-29T11:40:15;11.32;;;3.10;;
42770;SDS011;28426;42.872;25.314;2023-04-29T11:42:50;9.57;;;2.20;;
42770;SDS011;28426;42.872;25.314;2023-04-29T11:45:21;9.90;;;3.05;;
42770;SDS011;28426;42.872;25.314;2023-04-29T11:47:52;6.55;;;2.58;;
42770;SDS011;28426;42.872;25.314;2023-04-29T11:50:23;7.80;;;2.50;;
42770;SDS011;28426;42.872;25.314;2023-04-29T11:52:53;5.93;;;2.20;;
42770;SDS011;28426;42.872;25.314;2023-04-29T11:55:27;6.60;;;2.33;;
42770;SDS011;28426;42.872;25.314;2023-04-29T11:58:02;8.98;;;2.60;;
42770;SDS011;28426;42.872;25.314;2023-04-29T12:00:33;5.45;;;2.13;;
42770;SDS011;28426;42.872;25.314;2023-04-29T12:03:12;6.43;;;2.50;;
42770;SDS011;28426;42.872;25.314;2023-04-29T12:05:45;7.85;;;2.30;;
42770;SDS011;28426;42.872;25.314;2023-04-29T12:08:18;5.93;;;2.33;;
42770;SDS011;28426;42.872;25.314;2023-04-29T12:10:49;6.85;;;2.28;;
42770;SDS011;28426;42.872;25.314;2023-04-29T12:13:24;7.20;;;2.67;;
42770;SDS011;28426;42.872;25.314;2023-04-29T12:15:57;5.90;;;2.03;;
42770;SDS011;28426;42.872;25.314;2023-04-29T12:18:28;12.80;;;3.08;;
42770;SDS011;28426;42.872;25.314;2023-04-29T12:20:59;6.45;;;2.30;;
42770;SDS011;28426;42.872;25.314;2023-04-29T12:23:30;6.45;;;2.10;;
42770;SDS011;28426;42.872;25.314;2023-04-29T12:26:01;8.10;;;2.20;;
42770;SDS011;28426;42.872;25.314;2023-04-29T12:28:34;7.90;;;2.40;;
42770;SDS011;28426;42.872;25.314;2023-04-29T12:31:05;5.10;;;2.10;;
42770;SDS011;28426;42.872;25.314;2023-04-29T12:33:38;6.13;;;2.30;;
42770;SDS011;28426;42.872;25.314;2023-04-29T12:36:16;5.97;;;2.35;;
42770;SDS011;28426;42.872;25.314;2023-04-29T12:38:47;6.20;;;2.05;;
42770;SDS011;28426;42.872;25.314;2023-04-29T12:41:34;7.78;;;2.38;;
42770;SDS011;28426;42.872;25.314;2023-04-29T12:44:08;6.68;;;2.22;;
42770;SDS011;28426;42.872;25.314;2023-04-29T12:46:40;4.97;;;2.22;;
42770;SDS011;28426;42.872;25.314;2023-04-29T12:49:10;5.25;;;2.13;;
42770;SDS011;28426;42.872;25.314;2023-04-29T12:51:41;4.72;;;2.13;;
42770;SDS011;28426;42.872;25.314;2023-04-29T12:54:12;4.75;;;2.08;;
42770;SDS011;28426;42.872;25.314;2023-04-29T12:56:43;9.73;;;2.58;;
42770;SDS011;28426;42.872;25.314;2023-04-29T12:59:18;5.75;;;2.30;;
42770;SDS011;28426;42.872;25.314;2023-04-29T13:01:48;4.28;;;1.85;;
42770;SDS011;28426;42.872;25.314;2023-04-29T13:04:19;7.57;;;1.95;;
42770;SDS011;28426;42.872;25.314;2023-04-29T13:06:50;5.63;;;2.08;;
42770;SDS011;28426;42.872;25.314;2023-04-29T13:09:26;7.20;;;2.65;;
42770;SDS011;28426;42.872;25.314;2023-04-29T13:11:57;4.53;;;1.98;;
42770;SDS011;28426;42.872;25.314;2023-04-29T13:14:31;9.02;;;2.28;;
42770;SDS011;28426;42.872;25.314;2023-04-29T13:17:02;8.45;;;3.20;;
42770;SDS011;28426;42.872;25.314;2023-04-29T13:19:33;7.55;;;2.47;;
42770;SDS011;28426;42.872;25.314;2023-04-29T13:22:17;6.85;;;1.90;;
42770;SDS011;28426;42.872;25.314;2023-04-29T13:24:48;4.93;;;2.00;;
42770;SDS011;28426;42.872;25.314;2023-04-29T13:27:19;9.60;;;2.03;;
42770;SDS011;28426;42.872;25.314;2023-04-29T13:29:53;5.18;;;2.00;;
42770;SDS011;28426;42.872;25.314;2023-04-29T13:32:24;7.55;;;1.92;;
42770;SDS011;28426;42.872;25.314;2023-04-29T13:35:10;7.97;;;2.30;;
42770;SDS011;28426;42.872;25.314;2023-04-29T13:37:41;8.10;;;2.10;;
42770;SDS011;28426;42.872;25.314;2023-04-29T13:40:12;5.43;;;2.58;;
42770;SDS011;28426;42.872;25.314;2023-04-29T13:42:47;5.47;;;2.13;;
42770;SDS011;28426;42.872;25.314;2023-04-29T13:45:34;5.13;;;2.27;;
42770;SDS011;28426;42.872;25.314;2023-04-29T13:48:08;6.38;;;1.70;;
42770;SDS011;28426;42.872;25.314;2023-04-29T13:50:59;7.47;;;2.17;;
42770;SDS011;28426;42.872;25.314;2023-04-29T13:53:50;7.45;;;2.30;;
42770;SDS011;28426;42.872;25.314;2023-04-29T13:56:23;7.68;;;2.60;;
42770;SDS011;28426;42.872;25.314;2023-04-29T13:59:14;4.32;;;2.00;;
42770;SDS011;28426;42.872;25.314;2023-04-29T14:01:51;6.07;;;2.38;;
42770;SDS011;28426;42.872;25.314;2023-04-29T14:04:42;5.88;;;2.10;;
42770;SDS011;28426;42.872;25.314;2023-04-29T14:07:13;7.05;;;2.45;;
42770;SDS011;28426;42.872;25.314;2023-04-29T14:09:43;8.05;;;2.45;;
42770;SDS011;28426;42.872;25.314;2023-04-29T14:12:15;9.75;;;2.80;;
42770;SDS011;28426;42.872;25.314;2023-04-29T14:14:46;7.70;;;2.20;;
42770;SDS011;28426;42.872;25.314;2023-04-29T14:17:19;5.45;;;2.33;;
42770;SDS011;28426;42.872;25.314;2023-04-29T14:19:50;7.38;;;2.50;;
42770;SDS011;28426;42.872;25.314;2023-04-29T14:22:21;7.18;;;2.30;;
42770;SDS011;28426;42.872;25.314;2023-04-29T14:24:53;6.63;;;2.47;;
42770;SDS011;28426;42.872;25.314;2023-04-29T14:27:24;8.27;;;2.47;;
42770;SDS011;28426;42.872;25.314;2023-04-29T14:29:55;5.82;;;2.75;;
42770;SDS011;28426;42.872;25.314;2023-04-29T14:32:28;7.40;;;2.40;;
42770;SDS011;28426;42.872;25.314;2023-04-29T14:35:00;6.72;;;2.20;;
42770;SDS011;28426;42.872;25.314;2023-04-29T14:37:31;8.20;;;2.28;;
42770;SDS011;28426;42.872;25.314;2023-04-29T14:40:03;5.68;;;2.42;;
42770;SDS011;28426;42.872;25.314;2023-04-29T14:42:35;6.57;;;2.40;;
42770;SDS011;28426;42.872;25.314;2023-04-29T14:45:06;7.55;;;2.13;;
42770;SDS011;28426;42.872;25.314;2023-04-29T14:47:41;8.43;;;2.60;;
42770;SDS011;28426;42.872;25.314;2023-04-29T14:50:12;6.00;;;2.58;;
42770;SDS011;28426;42.872;25.314;2023-04-29T14:52:44;15.60;;;3.42;;
42770;SDS011;28426;42.872;25.314;2023-04-29T14:55:15;7.72;;;2.47;;
42770;SDS011;28426;42.872;25.314;2023-04-29T14:57:46;7.45;;;2.47;;
42770;SDS011;28426;42.872;25.314;2023-04-29T15:00:17;5.63;;;2.25;;
42770;SDS011;28426;42.872;25.314;2023-04-29T15:02:51;9.30;;;3.00;;
42770;SDS011;28426;42.872;25.314;2023-04-29T15:05:23;6.50;;;2.53;;
42770;SDS011;28426;42.872;25.314;2023-04-29T15:07:54;6.28;;;2.35;;
42770;SDS011;28426;42.872;25.314;2023-04-29T15:10:26;5.80;;;2.40;;
42770;SDS011;28426;42.872;25.314;2023-04-29T15:12:57;9.23;;;2.30;;
42770;SDS011;28426;42.872;25.314;2023-04-29T15:15:28;4.97;;;2.30;;
42770;SDS011;28426;42.872;25.314;2023-04-29T15:18:02;4.82;;;2.40;;
42770;SDS011;28426;42.872;25.314;2023-04-29T15:20:35;5.00;;;2.47;;
42770;SDS011;28426;42.872;25.314;2023-04-29T15:23:07;7.07;;;2.30;;